createdAt,value
2022-12-27T00:02:18.767Z,0.90
2022-12-27T00:04:45.135Z,0.93
2022-12-27T00:07:11.651Z,0.73
2022-12-27T00:09:38.271Z,0.90
2022-12-27T00:12:05.030Z,0.90
2022-12-27T00:14:31.582Z,0.70
2022-12-27T00:16:58.040Z,1.20
2022-12-27T00:19:24.455Z,0.90
2022-12-27T00:21:51.035Z,1.00
2022-12-27T00:24:17.450Z,1.20
2022-12-27T00:26:43.895Z,0.80
2022-12-27T00:29:10.863Z,1.15
2022-12-27T00:31:37.420Z,0.80
2022-12-27T00:34:06.411Z,0.97
2022-12-27T00:36:32.874Z,0.90
2022-12-27T00:39:00.126Z,0.68
2022-12-27T00:41:27.459Z,0.82
2022-12-27T00:43:53.957Z,1.13
2022-12-27T00:46:20.709Z,0.73
2022-12-27T00:48:47.526Z,0.77
2022-12-27T00:51:20.003Z,0.60
2022-12-27T00:53:47.557Z,0.63
2022-12-27T00:56:17.089Z,0.70
2022-12-27T00:58:44.275Z,1.07
2022-12-27T01:01:17.723Z,0.80
2022-12-27T01:03:44.714Z,0.90
2022-12-27T01:06:15.071Z,0.68
2022-12-27T01:08:41.980Z,0.80
2022-12-27T01:11:09.333Z,0.67
2022-12-27T01:13:36.556Z,0.90
2022-12-27T01:16:09.588Z,1.23
2022-12-27T01:18:36.071Z,0.95
2022-12-27T01:21:10.312Z,0.80
2022-12-27T01:23:37.616Z,1.13
2022-12-27T01:26:07.552Z,0.57
2022-12-27T01:28:35.182Z,0.50
2022-12-27T01:31:10.390Z,0.40
2022-12-27T01:33:37.390Z,0.30
2022-12-27T01:36:19.698Z,0.50
2022-12-27T01:38:48.085Z,0.40
2022-12-27T01:41:38.920Z,0.50
2022-12-27T01:44:39.487Z,0.40
2022-12-27T01:47:16.395Z,0.57
2022-12-27T01:50:06.371Z,0.77
2022-12-27T01:52:45.615Z,0.80
2022-12-27T01:55:23.001Z,0.70
2022-12-27T01:57:51.518Z,0.80
2022-12-27T02:00:18.202Z,0.95
2022-12-27T02:02:44.983Z,1.00
2022-12-27T02:05:15.006Z,0.80
2022-12-27T02:07:59.352Z,0.70
2022-12-27T02:10:27.473Z,0.60
2022-12-27T02:12:53.835Z,0.50
2022-12-27T02:15:20.239Z,0.70
2022-12-27T02:17:46.762Z,0.50
2022-12-27T02:20:17.777Z,0.55
2022-12-27T02:23:28.895Z,0.35
2022-12-27T02:26:17.083Z,0.40
2022-12-27T02:28:55.645Z,0.50
2022-12-27T02:31:35.485Z,0.70
2022-12-27T02:34:09.007Z,0.63
2022-12-27T02:36:39.279Z,0.55
2022-12-27T02:39:06.464Z,0.57
2022-12-27T02:41:53.647Z,0.83
2022-12-27T02:44:39.006Z,0.80
2022-12-27T02:47:39.239Z,0.93
2022-12-27T02:50:27.115Z,0.98
2022-12-27T02:53:30.553Z,1.98
2022-12-27T02:56:26.281Z,0.80
2022-12-27T02:59:21.317Z,0.80
2022-12-27T03:02:44.008Z,0.93
2022-12-27T03:05:19.937Z,1.10
2022-12-27T03:08:06.963Z,0.80
2022-12-27T03:11:18.094Z,1.30
2022-12-27T03:14:11.045Z,1.48
2022-12-27T03:16:57.474Z,1.20
2022-12-27T03:19:58.402Z,1.48
2022-12-27T03:22:47.337Z,1.35
2022-12-27T03:25:30.968Z,1.07
2022-12-27T03:28:42.421Z,0.98
2022-12-27T03:31:40.697Z,0.85
2022-12-27T03:34:27.977Z,0.85
2022-12-27T03:37:15.286Z,0.80
2022-12-27T03:39:56.643Z,0.80
2022-12-27T03:42:45.232Z,0.80
2022-12-27T03:45:11.745Z,0.90
2022-12-27T03:47:53.447Z,0.80
2022-12-27T03:50:28.940Z,0.77
2022-12-27T03:53:07.712Z,1.00
2022-12-27T03:55:34.334Z,0.75
2022-12-27T03:58:00.837Z,0.95
2022-12-27T04:00:27.323Z,0.70
2022-12-27T04:02:53.927Z,0.80
2022-12-27T04:05:20.547Z,0.70
2022-12-27T04:08:05.593Z,0.77
2022-12-27T04:10:50.437Z,1.05
2022-12-27T04:13:35.654Z,0.93
2022-12-27T04:16:20.629Z,0.88
2022-12-27T04:19:05.668Z,0.57
2022-12-27T04:21:50.563Z,0.90
2022-12-27T04:24:35.349Z,0.52
2022-12-27T04:27:20.183Z,0.75
2022-12-27T04:30:05.197Z,0.40
2022-12-27T04:32:50.186Z,0.60
2022-12-27T04:35:16.675Z,0.82
2022-12-27T04:37:43.088Z,0.60
2022-12-27T04:40:28.340Z,0.50
2022-12-27T04:43:13.225Z,0.63
2022-12-27T04:45:58.195Z,0.60
2022-12-27T04:48:46.859Z,0.77
2022-12-27T04:51:31.944Z,0.60
2022-12-27T04:54:16.980Z,0.95
2022-12-27T04:56:43.421Z,0.85
2022-12-27T04:59:28.203Z,0.80
2022-12-27T05:02:04.216Z,1.27
2022-12-27T05:04:36.667Z,0.50
2022-12-27T05:07:24.089Z,0.65
2022-12-27T05:10:09.530Z,0.60
2022-12-27T05:12:54.249Z,0.60
2022-12-27T05:15:20.676Z,0.63
2022-12-27T05:17:47.161Z,0.70
2022-12-27T05:20:13.603Z,0.63
2022-12-27T05:22:58.643Z,1.20
2022-12-27T05:25:39.871Z,0.90
2022-12-27T05:28:08.729Z,0.75
2022-12-27T05:30:37.216Z,0.63
2022-12-27T05:33:04.283Z,0.77
2022-12-27T05:35:31.281Z,0.90
2022-12-27T05:37:57.742Z,0.67
2022-12-27T05:40:24.881Z,0.80
2022-12-27T05:42:51.648Z,0.90
2022-12-27T05:45:18.571Z,0.90
2022-12-27T05:47:45.192Z,1.20
2022-12-27T05:50:11.928Z,1.07
2022-12-27T05:52:41.186Z,0.80
2022-12-27T05:55:08.557Z,0.98
2022-12-27T05:57:34.998Z,0.55
2022-12-27T06:00:04.347Z,0.85
2022-12-27T06:02:30.878Z,1.07
2022-12-27T06:04:57.411Z,0.95
2022-12-27T06:07:24.251Z,0.98
2022-12-27T06:09:50.617Z,0.82
2022-12-27T06:12:16.993Z,0.70
2022-12-27T06:14:43.509Z,0.90
2022-12-27T06:17:09.936Z,1.13
2022-12-27T06:19:36.360Z,0.85
2022-12-27T06:22:03.054Z,0.75
2022-12-27T06:24:29.541Z,1.00
2022-12-27T06:26:55.956Z,0.67
2022-12-27T06:29:22.514Z,0.70
2022-12-27T06:31:49.101Z,0.70
2022-12-27T06:34:15.673Z,0.73
2022-12-27T06:36:42.072Z,1.38
2022-12-27T06:39:08.483Z,0.77
2022-12-27T06:41:35.022Z,0.70
2022-12-27T06:44:01.481Z,0.70
2022-12-27T06:46:27.951Z,0.60
2022-12-27T06:48:54.561Z,0.73
2022-12-27T06:51:21.572Z,0.97
2022-12-27T06:53:48.809Z,0.63
2022-12-27T06:56:18.315Z,0.93
2022-12-27T06:58:49.056Z,1.15
2022-12-27T07:01:18.638Z,0.70
2022-12-27T07:03:49.994Z,0.57
2022-12-27T07:06:17.008Z,0.80
2022-12-27T07:08:43.467Z,0.98
2022-12-27T07:11:11.656Z,0.90
2022-12-27T07:13:44.268Z,0.50
2022-12-27T07:16:13.378Z,0.77
2022-12-27T07:18:40.353Z,0.63
2022-12-27T07:21:09.288Z,0.80
2022-12-27T07:23:36.619Z,0.80
2022-12-27T07:26:08.640Z,0.70
2022-12-27T07:28:35.305Z,0.97
2022-12-27T07:31:08.046Z,0.90
2022-12-27T07:33:35.509Z,0.90
2022-12-27T07:36:02.526Z,0.90
2022-12-27T07:38:28.995Z,0.70
2022-12-27T07:40:59.269Z,0.70
2022-12-27T07:43:26.814Z,0.90
2022-12-27T07:45:53.285Z,0.73
2022-12-27T07:48:19.723Z,0.60
2022-12-27T07:50:54.999Z,0.93
2022-12-27T07:53:21.753Z,0.77
2022-12-27T07:55:48.741Z,0.82
2022-12-27T07:58:15.172Z,0.70
2022-12-27T08:00:41.599Z,0.55
2022-12-27T08:03:08.038Z,1.02
2022-12-27T08:05:34.447Z,1.00
2022-12-27T08:08:02.485Z,0.95
2022-12-27T08:10:28.921Z,0.90
2022-12-27T08:12:55.394Z,0.60
2022-12-27T08:15:21.848Z,0.90
2022-12-27T08:17:48.275Z,1.10
2022-12-27T08:20:14.789Z,1.20
2022-12-27T08:22:41.247Z,1.00
2022-12-27T08:25:08.018Z,1.05
2022-12-27T08:27:34.473Z,1.63
2022-12-27T08:30:00.902Z,1.10
2022-12-27T08:32:27.350Z,1.20
2022-12-27T08:34:53.781Z,1.20
2022-12-27T08:37:20.341Z,0.90
2022-12-27T08:39:46.792Z,1.48
2022-12-27T08:42:14.047Z,1.10
2022-12-27T08:44:40.499Z,1.38
2022-12-27T08:47:06.980Z,1.13
2022-12-27T08:49:33.448Z,1.65
2022-12-27T08:51:59.945Z,1.48
2022-12-27T08:54:26.431Z,1.20
2022-12-27T08:56:52.872Z,1.08
2022-12-27T08:59:19.271Z,1.35
2022-12-27T09:01:45.772Z,1.73
2022-12-27T09:04:12.322Z,1.30
2022-12-27T09:06:40.634Z,2.10
2022-12-27T09:09:07.036Z,1.60
2022-12-27T09:11:34.425Z,1.55
2022-12-27T09:14:05.417Z,1.17
2022-12-27T09:16:34.041Z,2.17
2022-12-27T09:19:00.849Z,1.77
2022-12-27T09:21:29.938Z,1.80
2022-12-27T09:23:56.404Z,1.23
2022-12-27T09:26:25.461Z,1.92
2022-12-27T09:28:52.317Z,1.35
2022-12-27T09:31:20.601Z,1.87
2022-12-27T09:33:47.412Z,2.72
2022-12-27T09:36:23.370Z,1.42
2022-12-27T09:38:52.612Z,1.98
2022-12-27T09:44:34.495Z,2.10
2022-12-27T09:47:05.398Z,2.05
2022-12-27T09:50:03.338Z,1.70
2022-12-27T09:52:35.035Z,1.83
2022-12-27T09:55:07.912Z,1.50
2022-12-27T09:57:38.753Z,1.90
2022-12-27T10:00:14.635Z,2.00
2022-12-27T10:02:44.543Z,2.20
2022-12-27T10:05:34.405Z,1.90
2022-12-27T10:08:07.039Z,2.35
2022-12-27T10:11:33.043Z,2.37
2022-12-27T10:14:19.177Z,3.15
2022-12-27T10:16:58.521Z,2.40
2022-12-27T10:19:28.150Z,2.85
2022-12-27T10:21:54.490Z,3.22
2022-12-27T10:24:26.077Z,3.23
2022-12-27T10:26:55.346Z,3.25
2022-12-27T10:29:26.513Z,2.85
2022-12-27T10:31:52.937Z,2.95
2022-12-27T10:34:24.604Z,2.38
2022-12-27T10:36:53.243Z,2.73
2022-12-27T10:39:30.069Z,2.80
2022-12-27T10:42:23.748Z,3.38
2022-12-27T10:44:50.142Z,3.97
2022-12-27T10:47:16.948Z,3.45
2022-12-27T10:49:59.586Z,4.07
2022-12-27T10:52:30.454Z,3.75
2022-12-27T10:54:57.716Z,3.65
2022-12-27T10:57:26.872Z,3.10
2022-12-27T11:00:24.004Z,2.90
2022-12-27T11:06:33.393Z,3.13
2022-12-27T11:09:27.388Z,2.97
2022-12-27T11:12:53.510Z,2.55
2022-12-27T11:15:58.499Z,3.45
2022-12-27T11:18:51.068Z,3.30
2022-12-27T11:24:33.635Z,2.28
2022-12-27T11:27:00.942Z,2.83
2022-12-27T11:29:45.459Z,2.97
2022-12-27T11:33:24.112Z,2.50
2022-12-27T11:35:54.219Z,2.55
2022-12-27T11:38:26.952Z,2.42
2022-12-27T11:41:05.432Z,2.55
2022-12-27T11:43:50.729Z,2.50
2022-12-27T11:46:35.260Z,3.10
2022-12-27T11:49:05.592Z,2.70
2022-12-27T11:52:07.620Z,2.72
2022-12-27T11:54:59.952Z,3.70
2022-12-27T11:57:39.072Z,3.25
2022-12-27T12:00:17.445Z,3.47
2022-12-27T12:03:35.684Z,3.58
2022-12-27T12:06:35.740Z,3.45
2022-12-27T12:09:21.865Z,3.20
2022-12-27T12:12:01.637Z,2.88
2022-12-27T12:14:49.993Z,2.93
2022-12-27T12:17:21.753Z,2.53
2022-12-27T12:20:25.586Z,2.35
2022-12-27T12:23:30.167Z,2.80
2022-12-27T12:26:28.699Z,2.15
2022-12-27T12:29:26.072Z,1.60
2022-12-27T12:32:06.918Z,2.33
2022-12-27T12:34:55.024Z,2.33
2022-12-27T12:37:58.797Z,2.53
2022-12-27T12:40:45.794Z,2.60
2022-12-27T12:43:30.967Z,2.00
2022-12-27T12:46:35.144Z,2.45
2022-12-27T12:49:31.990Z,2.38
2022-12-27T12:52:17.851Z,2.28
2022-12-27T12:54:52.689Z,2.28
2022-12-27T12:57:40.317Z,2.50
2022-12-27T13:00:25.975Z,2.13
2022-12-27T13:03:17.626Z,2.60
2022-12-27T13:05:56.270Z,2.35
2022-12-27T13:08:50.973Z,1.83
2022-12-27T13:11:39.892Z,2.53
2022-12-27T13:14:24.713Z,2.22
2022-12-27T13:16:54.151Z,2.80
2022-12-27T13:19:38.683Z,2.53
2022-12-27T13:22:14.176Z,2.75
2022-12-27T13:25:28.052Z,2.63
2022-12-27T13:28:28.004Z,2.20
2022-12-27T13:31:19.989Z,2.97
2022-12-27T13:34:18.503Z,2.75
2022-12-27T13:37:15.027Z,3.08
2022-12-27T13:40:12.903Z,2.50
2022-12-27T13:43:05.716Z,2.20
2022-12-27T13:45:51.963Z,2.40
2022-12-27T13:48:46.320Z,2.13
2022-12-27T13:51:38.800Z,1.95
2022-12-27T13:54:41.804Z,2.17
2022-12-27T13:57:42.006Z,2.38
2022-12-27T14:00:20.059Z,2.65
2022-12-27T14:03:20.404Z,1.92
2022-12-27T14:06:11.844Z,2.22
2022-12-27T14:09:05.296Z,2.00
2022-12-27T14:11:44.335Z,3.47
2022-12-27T14:14:21.334Z,2.13
2022-12-27T14:17:13.604Z,1.67
2022-12-27T14:20:04.724Z,1.92
2022-12-27T14:22:37.319Z,1.90
2022-12-27T14:25:41.387Z,2.38
2022-12-27T14:28:21.698Z,1.95
2022-12-27T14:31:14.472Z,2.10
2022-12-27T14:34:01.811Z,1.90
2022-12-27T14:36:46.939Z,1.97
2022-12-27T14:39:37.769Z,2.00
2022-12-27T14:42:22.445Z,1.40
2022-12-27T14:45:10.212Z,2.15
2022-12-27T14:48:19.726Z,1.90
2022-12-27T14:51:41.545Z,2.20
2022-12-27T14:54:38.360Z,2.10
2022-12-27T14:57:28.716Z,2.20
2022-12-27T15:00:20.684Z,2.05
2022-12-27T15:02:56.398Z,2.30
2022-12-27T15:05:40.600Z,1.90
2022-12-27T15:08:25.887Z,2.20
2022-12-27T15:11:14.075Z,1.95
2022-12-27T15:13:43.393Z,2.00
2022-12-27T15:16:21.264Z,2.22
2022-12-27T15:18:55.155Z,1.87
2022-12-27T15:21:46.284Z,2.15
2022-12-27T15:24:29.984Z,1.70
2022-12-27T15:27:16.401Z,1.80
2022-12-27T15:29:52.322Z,1.92
2022-12-27T15:32:27.716Z,1.77
2022-12-27T15:35:20.348Z,1.95
2022-12-27T15:38:02.708Z,1.98
2022-12-27T15:40:42.743Z,1.92
2022-12-27T15:43:35.044Z,2.00
2022-12-27T15:46:20.480Z,2.13
2022-12-27T15:49:04.834Z,2.00
2022-12-27T15:51:49.632Z,2.05
2022-12-27T15:54:15.913Z,2.00
2022-12-27T15:57:16.689Z,1.70
2022-12-27T16:00:05.441Z,2.50
2022-12-27T16:02:49.268Z,1.80
2022-12-27T16:05:19.025Z,2.40
2022-12-27T16:08:00.585Z,2.60
2022-12-27T16:10:31.953Z,1.83
2022-12-27T16:13:04.487Z,2.50
2022-12-27T16:15:43.516Z,2.10
2022-12-27T16:18:18.883Z,2.17
2022-12-27T16:21:21.205Z,2.08
2022-12-27T16:23:47.569Z,2.42
2022-12-27T16:26:19.946Z,1.90
2022-12-27T16:29:01.551Z,2.45
2022-12-27T16:31:33.589Z,1.90
2022-12-27T16:34:28.875Z,1.58
2022-12-27T16:36:58.211Z,2.22
2022-12-27T16:39:40.110Z,1.90
2022-12-27T16:42:08.482Z,2.20
2022-12-27T16:45:32.948Z,1.98
2022-12-27T16:48:31.382Z,2.50
2022-12-27T16:51:08.232Z,1.98
2022-12-27T16:53:43.768Z,1.67
2022-12-27T16:56:15.068Z,2.00
2022-12-27T16:58:41.950Z,1.90
2022-12-27T17:01:35.957Z,1.83
2022-12-27T17:04:03.612Z,2.08
2022-12-27T17:06:33.207Z,2.07
2022-12-27T17:09:09.332Z,1.70
2022-12-27T17:11:42.869Z,1.98
2022-12-27T17:14:14.879Z,1.83
2022-12-27T17:16:47.510Z,1.75
2022-12-27T17:19:39.094Z,2.10
2022-12-27T17:22:07.927Z,2.65
2022-12-27T17:24:34.464Z,1.60
2022-12-27T17:27:16.535Z,1.95
2022-12-27T17:30:13.734Z,1.52
2022-12-27T17:33:00.117Z,1.50
2022-12-27T17:35:41.586Z,1.48
2022-12-27T17:38:24.963Z,1.70
2022-12-27T17:41:15.117Z,1.75
2022-12-27T17:44:15.789Z,1.80
2022-12-27T17:46:49.080Z,1.40
2022-12-27T17:49:16.823Z,1.70
2022-12-27T17:52:05.628Z,1.65
2022-12-27T17:54:50.879Z,1.83
2022-12-27T17:57:38.178Z,1.73
2022-12-27T18:00:06.654Z,1.67
2022-12-27T18:02:39.434Z,1.10
2022-12-27T18:05:12.286Z,2.33
2022-12-27T18:07:39.268Z,1.50
2022-12-27T18:10:14.893Z,1.58
2022-12-27T18:12:43.248Z,1.40
2022-12-27T18:15:16.551Z,1.23
2022-12-27T18:17:46.187Z,2.10
2022-12-27T18:20:28.079Z,1.90
2022-12-27T18:23:00.649Z,1.55
2022-12-27T18:25:31.260Z,1.70
2022-12-27T18:28:06.707Z,1.67
2022-12-27T18:30:40.395Z,1.50
2022-12-27T18:33:07.299Z,1.63
2022-12-27T18:35:34.863Z,1.58
2022-12-27T18:38:06.424Z,1.50
2022-12-27T18:40:34.217Z,1.60
2022-12-27T18:43:00.791Z,1.50
2022-12-27T18:45:30.353Z,1.48
2022-12-27T18:48:00.799Z,1.40
2022-12-27T18:50:32.543Z,1.70
2022-12-27T18:53:26.259Z,1.42
2022-12-27T18:56:01.709Z,1.73
2022-12-27T18:58:28.603Z,2.33
2022-12-27T19:01:25.282Z,1.75
2022-12-27T19:04:13.831Z,1.70
2022-12-27T19:06:55.415Z,1.60
2022-12-27T19:09:26.645Z,1.75
2022-12-27T19:12:14.575Z,1.67
2022-12-27T19:14:43.830Z,2.05
2022-12-27T19:17:26.404Z,1.57
2022-12-27T19:19:56.099Z,1.48
2022-12-27T19:22:48.218Z,1.30
2022-12-27T19:25:18.447Z,1.65
2022-12-27T19:28:09.844Z,1.45
2022-12-27T19:30:44.202Z,1.63
2022-12-27T19:33:32.449Z,1.50
2022-12-27T19:36:00.753Z,1.83
2022-12-27T19:38:28.872Z,1.30
2022-12-27T19:41:03.252Z,1.70
2022-12-27T19:43:38.078Z,1.47
2022-12-27T19:46:04.901Z,1.90
2022-12-27T19:48:31.453Z,2.58
2022-12-27T19:50:58.408Z,2.20
2022-12-27T19:53:31.039Z,1.98
2022-12-27T19:55:58.363Z,2.33
2022-12-27T19:58:27.468Z,1.92
2022-12-27T20:00:54.107Z,1.77
2022-12-27T20:03:20.699Z,1.52
2022-12-27T20:06:14.442Z,1.80
2022-12-27T20:08:37.985Z,1.90
2022-12-27T20:11:06.659Z,1.88
2022-12-27T20:13:33.596Z,1.60
2022-12-27T20:16:00.698Z,1.70
2022-12-27T20:18:27.116Z,1.67
2022-12-27T20:20:53.763Z,1.40
2022-12-27T20:23:21.575Z,1.30
2022-12-27T20:25:49.580Z,1.73
2022-12-27T20:28:17.974Z,1.80
2022-12-27T20:30:46.249Z,1.67
2022-12-27T20:33:13.583Z,1.40
2022-12-27T20:35:40.589Z,1.77
2022-12-27T20:38:09.025Z,1.25
2022-12-27T20:40:35.581Z,1.70
2022-12-27T20:43:02.044Z,1.35
2022-12-27T20:45:28.841Z,1.70
2022-12-27T20:47:55.303Z,1.55
2022-12-27T20:50:21.906Z,1.65
2022-12-27T20:52:48.324Z,1.52
2022-12-27T20:55:14.795Z,1.60
2022-12-27T20:57:42.469Z,1.30
2022-12-27T21:00:10.571Z,1.70
2022-12-27T21:02:38.846Z,1.73
2022-12-27T21:05:06.412Z,1.30
2022-12-27T21:07:33.190Z,1.67
2022-12-27T21:09:59.727Z,1.30
2022-12-27T21:12:26.199Z,1.45
2022-12-27T21:14:52.628Z,1.55
2022-12-27T21:17:19.057Z,1.08
2022-12-27T21:19:45.752Z,1.30
2022-12-27T21:22:12.190Z,1.40
2022-12-27T21:24:38.815Z,1.40
2022-12-27T21:27:05.295Z,1.20
2022-12-27T21:29:31.710Z,1.30
2022-12-27T21:31:58.141Z,1.60
2022-12-27T21:34:24.585Z,1.43
2022-12-27T21:36:54.139Z,1.70
2022-12-27T21:39:20.886Z,1.40
2022-12-27T21:41:47.282Z,1.67
2022-12-27T21:44:13.688Z,1.00
2022-12-27T21:46:41.983Z,1.40
2022-12-27T21:49:12.306Z,1.48
2022-12-27T21:51:40.312Z,1.33
2022-12-27T21:54:07.745Z,1.27
2022-12-27T21:56:34.328Z,1.45
2022-12-27T21:59:03.000Z,1.13
2022-12-27T22:01:30.901Z,1.27
2022-12-27T22:04:17.197Z,1.20
2022-12-27T22:06:47.219Z,1.10
2022-12-27T22:09:14.491Z,1.30
2022-12-27T22:11:41.006Z,1.40
2022-12-27T22:14:07.565Z,1.10
2022-12-27T22:16:36.833Z,1.20
2022-12-27T22:19:06.531Z,0.93
2022-12-27T22:21:35.641Z,1.20
2022-12-27T22:24:03.584Z,1.27
2022-12-27T22:26:37.338Z,1.60
2022-12-27T22:29:05.321Z,0.93
2022-12-27T22:31:35.325Z,0.98
2022-12-27T22:34:03.915Z,1.00
2022-12-27T22:36:30.557Z,1.50
2022-12-27T22:38:59.485Z,1.10
2022-12-27T22:41:30.358Z,1.27
2022-12-27T22:44:03.644Z,1.33
2022-12-27T22:46:51.110Z,1.38
2022-12-27T22:49:17.220Z,1.10
2022-12-27T22:51:43.840Z,1.48
2022-12-27T22:54:10.294Z,1.42
2022-12-27T22:56:39.775Z,1.50
2022-12-27T22:59:11.424Z,1.40
2022-12-27T23:04:14.315Z,1.48
2022-12-27T23:06:41.646Z,1.30
2022-12-27T23:09:08.413Z,1.60
2022-12-27T23:11:38.130Z,1.95
2022-12-27T23:14:16.691Z,1.60
2022-12-27T23:16:45.941Z,1.50
2022-12-27T23:19:13.865Z,1.70
2022-12-27T23:21:40.359Z,1.60
2022-12-27T23:24:07.581Z,1.63
2022-12-27T23:26:34.191Z,2.30
2022-12-27T23:29:00.821Z,1.63
2022-12-27T23:31:27.738Z,2.10
2022-12-27T23:33:54.324Z,2.03
2022-12-27T23:36:21.681Z,1.90
2022-12-27T23:38:48.605Z,1.80
2022-12-27T23:41:21.062Z,1.95
2022-12-27T23:43:53.356Z,1.85
2022-12-27T23:46:27.453Z,1.77
2022-12-27T23:48:54.843Z,2.15
2022-12-27T23:51:21.858Z,1.80
2022-12-27T23:53:48.565Z,1.67
2022-12-27T23:56:22.113Z,2.00
2022-12-27T23:58:50.105Z,2.00
